CheckWX is a tool to help pilots better visualize weather data.  It is not intended as a substitute for an official pre-flight weather briefing.

00:21:04 UTC

YTRE TAF
Taree Airport
Taree, Australia
TAF YTRE 251759Z 2519/2608 30005KT 9999 -SHRA SCT060 FM252200 20010KT 9999 -SHRA BKN030 INTER 2603/2607 4000 SHRA BKN015

Mar-25@
19:00 UTC

Mar-25 @ 19:00 UTC

Mar-25@
22:00 UTC

Mar-25 @ 22:00 UTC

TAF YTRE 251759Z 2519/2608 30005KT 9999 -SHRA SCT060

Expired

Wind
  • 300° at 5 KTS
Conditions
Light Rain
Cloud Levels
  • Scattered at 6,000' AGL

Mar-25@
22:00 UTC

Mar-25 @ 22:00 UTC

Mar-26@
08:00 UTC

Mar-26 @ 08:00 UTC

FM252200 20010KT 9999 -SHRA BKN030

From

From Standard forecast or significant change

Wind
  • 200° at 10 KTS
Conditions
Light Rain
Cloud Levels
  • Broken at 3,000' AGL

Mar-26@
03:00 UTC

Mar-26 @ 03:00 UTC

Mar-26@
07:00 UTC

Mar-26 @ 07:00 UTC

INTER 2603/2607 4000 SHRA BKN015

Temporary

Temporary Changes expected for less than half the time period

Conditions
Rain
Cloud Levels
  • Broken at 1,500' AGL